sensor_id;sensor_type;location;lat;lon;timestamp;P1;durP1;ratioP1;P2;durP2;ratioP2
18217;SDS011;9234;49.344;11.120;2023-07-28T00:00:10;4.60;;;4.20;;
18217;SDS011;9234;49.344;11.120;2023-07-28T00:02:41;4.93;;;4.50;;
18217;SDS011;9234;49.344;11.120;2023-07-28T00:05:09;4.70;;;4.18;;
18217;SDS011;9234;49.344;11.120;2023-07-28T00:07:38;4.13;;;3.72;;
18217;SDS011;9234;49.344;11.120;2023-07-28T00:10:06;4.72;;;3.88;;
18217;SDS011;9234;49.344;11.120;2023-07-28T00:12:38;4.28;;;3.85;;
18217;SDS011;9234;49.344;11.120;2023-07-28T00:15:06;4.70;;;4.30;;
18217;SDS011;9234;49.344;11.120;2023-07-28T00:17:34;5.57;;;4.75;;
18217;SDS011;9234;49.344;11.120;2023-07-28T00:20:05;5.05;;;4.63;;
18217;SDS011;9234;49.344;11.120;2023-07-28T00:22:35;5.10;;;4.63;;
18217;SDS011;9234;49.344;11.120;2023-07-28T00:25:03;7.13;;;4.55;;
18217;SDS011;9234;49.344;11.120;2023-07-28T00:27:32;5.22;;;4.65;;
18217;SDS011;9234;49.344;11.120;2023-07-28T00:30:00;4.70;;;4.00;;
18217;SDS011;9234;49.344;11.120;2023-07-28T00:32:29;4.35;;;3.97;;
18217;SDS011;9234;49.344;11.120;2023-07-28T00:34:57;6.38;;;4.60;;
18217;SDS011;9234;49.344;11.120;2023-07-28T00:37:26;5.68;;;4.88;;
18217;SDS011;9234;49.344;11.120;2023-07-28T00:39:55;5.22;;;4.72;;
18217;SDS011;9234;49.344;11.120;2023-07-28T00:42:23;5.30;;;4.47;;
18217;SDS011;9234;49.344;11.120;2023-07-28T00:44:51;4.93;;;4.35;;
18217;SDS011;9234;49.344;11.120;2023-07-28T00:47:19;5.32;;;4.82;;
18217;SDS011;9234;49.344;11.120;2023-07-28T00:49:48;4.43;;;4.07;;
18217;SDS011;9234;49.344;11.120;2023-07-28T00:52:16;5.03;;;4.55;;
18217;SDS011;9234;49.344;11.120;2023-07-28T00:54:46;10.52;;;4.78;;
18217;SDS011;9234;49.344;11.120;2023-07-28T00:57:14;4.72;;;4.32;;
18217;SDS011;9234;49.344;11.120;2023-07-28T00:59:44;5.28;;;4.30;;
18217;SDS011;9234;49.344;11.120;2023-07-28T01:02:16;5.78;;;4.78;;
18217;SDS011;9234;49.344;11.120;2023-07-28T01:04:45;5.10;;;3.97;;
18217;SDS011;9234;49.344;11.120;2023-07-28T01:07:16;5.10;;;4.25;;
18217;SDS011;9234;49.344;11.120;2023-07-28T01:10:00;4.47;;;4.07;;
18217;SDS011;9234;49.344;11.120;2023-07-28T01:12:34;3.78;;;3.45;;
18217;SDS011;9234;49.344;11.120;2023-07-28T01:15:02;5.68;;;4.18;;
18217;SDS011;9234;49.344;11.120;2023-07-28T01:17:31;5.30;;;4.45;;
18217;SDS011;9234;49.344;11.120;2023-07-28T01:20:00;4.85;;;4.45;;
18217;SDS011;9234;49.344;11.120;2023-07-28T01:22:40;4.45;;;4.05;;
18217;SDS011;9234;49.344;11.120;2023-07-28T01:25:39;4.35;;;3.95;;
18217;SDS011;9234;49.344;11.120;2023-07-28T01:28:21;4.60;;;4.20;;
18217;SDS011;9234;49.344;11.120;2023-07-28T01:30:50;5.85;;;4.20;;
18217;SDS011;9234;49.344;11.120;2023-07-28T01:33:18;4.18;;;3.75;;
18217;SDS011;9234;49.344;11.120;2023-07-28T01:35:47;5.32;;;4.82;;
18217;SDS011;9234;49.344;11.120;2023-07-28T01:38:15;6.70;;;4.68;;
18217;SDS011;9234;49.344;11.120;2023-07-28T01:40:43;4.20;;;3.78;;
18217;SDS011;9234;49.344;11.120;2023-07-28T01:43:11;4.35;;;3.95;;
18217;SDS011;9234;49.344;11.120;2023-07-28T01:45:41;4.18;;;3.85;;
18217;SDS011;9234;49.344;11.120;2023-07-28T01:48:09;4.20;;;3.80;;
18217;SDS011;9234;49.344;11.120;2023-07-28T01:50:37;4.45;;;4.13;;
18217;SDS011;9234;49.344;11.120;2023-07-28T01:53:06;4.93;;;4.00;;
18217;SDS011;9234;49.344;11.120;2023-07-28T01:55:35;4.95;;;4.45;;
18217;SDS011;9234;49.344;11.120;2023-07-28T01:58:03;5.07;;;3.90;;
18217;SDS011;9234;49.344;11.120;2023-07-28T02:00:31;4.78;;;3.90;;
18217;SDS011;9234;49.344;11.120;2023-07-28T02:03:01;4.05;;;3.65;;
18217;SDS011;9234;49.344;11.120;2023-07-28T02:05:30;4.88;;;4.38;;
18217;SDS011;9234;49.344;11.120;2023-07-28T02:07:58;4.57;;;4.18;;
18217;SDS011;9234;49.344;11.120;2023-07-28T02:10:27;5.95;;;4.63;;
18217;SDS011;9234;49.344;11.120;2023-07-28T02:12:57;4.70;;;4.22;;
18217;SDS011;9234;49.344;11.120;2023-07-28T02:15:25;4.15;;;3.75;;
18217;SDS011;9234;49.344;11.120;2023-07-28T02:17:53;5.05;;;4.60;;
18217;SDS011;9234;49.344;11.120;2023-07-28T02:20:23;4.95;;;4.45;;
18217;SDS011;9234;49.344;11.120;2023-07-28T02:22:51;4.28;;;3.88;;
18217;SDS011;9234;49.344;11.120;2023-07-28T02:25:19;4.28;;;3.92;;
18217;SDS011;9234;49.344;11.120;2023-07-28T02:27:47;5.28;;;4.30;;
18217;SDS011;9234;49.344;11.120;2023-07-28T02:30:16;5.53;;;4.18;;
18217;SDS011;9234;49.344;11.120;2023-07-28T02:32:44;7.63;;;4.93;;
18217;SDS011;9234;49.344;11.120;2023-07-28T02:35:15;4.72;;;4.32;;
18217;SDS011;9234;49.344;11.120;2023-07-28T02:37:48;4.18;;;3.75;;
18217;SDS011;9234;49.344;11.120;2023-07-28T02:40:16;4.20;;;3.85;;
18217;SDS011;9234;49.344;11.120;2023-07-28T02:42:44;4.82;;;4.43;;
18217;SDS011;9234;49.344;11.120;2023-07-28T02:45:13;4.82;;;4.43;;
18217;SDS011;9234;49.344;11.120;2023-07-28T02:47:41;6.45;;;4.47;;
18217;SDS011;9234;49.344;11.120;2023-07-28T02:50:09;5.40;;;4.82;;
18217;SDS011;9234;49.344;11.120;2023-07-28T02:52:38;5.20;;;4.70;;
18217;SDS011;9234;49.344;11.120;2023-07-28T02:55:08;5.78;;;4.97;;
18217;SDS011;9234;49.344;11.120;2023-07-28T02:57:36;5.32;;;4.60;;
18217;SDS011;9234;49.344;11.120;2023-07-28T03:00:05;5.22;;;4.53;;
18217;SDS011;9234;49.344;11.120;2023-07-28T03:02:37;6.15;;;4.65;;
18217;SDS011;9234;49.344;11.120;2023-07-28T03:05:06;5.28;;;4.78;;
18217;SDS011;9234;49.344;11.120;2023-07-28T03:08:09;6.78;;;4.63;;
18217;SDS011;9234;49.344;11.120;2023-07-28T03:10:39;5.72;;;5.22;;
18217;SDS011;9234;49.344;11.120;2023-07-28T03:13:07;6.43;;;5.25;;
18217;SDS011;9234;49.344;11.120;2023-07-28T03:15:35;6.05;;;5.45;;
18217;SDS011;9234;49.344;11.120;2023-07-28T03:18:04;5.32;;;4.82;;
18217;SDS011;9234;49.344;11.120;2023-07-28T03:20:33;5.65;;;5.00;;
18217;SDS011;9234;49.344;11.120;2023-07-28T03:23:01;5.47;;;4.97;;
18217;SDS011;9234;49.344;11.120;2023-07-28T03:25:30;9.55;;;4.35;;
18217;SDS011;9234;49.344;11.120;2023-07-28T03:27:59;5.30;;;4.82;;
18217;SDS011;9234;49.344;11.120;2023-07-28T03:30:28;5.65;;;4.78;;
18217;SDS011;9234;49.344;11.120;2023-07-28T03:32:56;5.85;;;5.35;;
18217;SDS011;9234;49.344;11.120;2023-07-28T03:35:24;6.68;;;5.18;;
18217;SDS011;9234;49.344;11.120;2023-07-28T03:38:01;8.98;;;4.90;;
18217;SDS011;9234;49.344;11.120;2023-07-28T03:40:30;5.57;;;5.05;;
18217;SDS011;9234;49.344;11.120;2023-07-28T03:42:59;5.30;;;4.82;;
18217;SDS011;9234;49.344;11.120;2023-07-28T03:45:29;6.88;;;5.78;;
18217;SDS011;9234;49.344;11.120;2023-07-28T03:47:58;5.82;;;4.97;;
18217;SDS011;9234;49.344;11.120;2023-07-28T03:50:26;6.07;;;5.00;;
18217;SDS011;9234;49.344;11.120;2023-07-28T03:52:54;5.00;;;4.43;;
18217;SDS011;9234;49.344;11.120;2023-07-28T03:55:22;5.45;;;5.00;;
18217;SDS011;9234;49.344;11.120;2023-07-28T03:57:50;5.70;;;4.80;;
18217;SDS011;9234;49.344;11.120;2023-07-28T04:00:22;5.78;;;5.25;;
18217;SDS011;9234;49.344;11.120;2023-07-28T04:02:51;6.07;;;5.40;;
18217;SDS011;9234;49.344;11.120;2023-07-28T04:05:19;6.28;;;5.25;;
18217;SDS011;9234;49.344;11.120;2023-07-28T04:07:47;5.80;;;5.30;;
18217;SDS011;9234;49.344;11.120;2023-07-28T04:10:15;7.03;;;4.60;;
18217;SDS011;9234;49.344;11.120;2023-07-28T04:12:44;6.43;;;5.60;;
18217;SDS011;9234;49.344;11.120;2023-07-28T04:15:12;6.72;;;4.65;;
18217;SDS011;9234;49.344;11.120;2023-07-28T04:17:44;6.43;;;5.68;;
18217;SDS011;9234;49.344;11.120;2023-07-28T04:20:12;6.22;;;5.43;;
18217;SDS011;9234;49.344;11.120;2023-07-28T04:22:41;6.25;;;5.65;;
18217;SDS011;9234;49.344;11.120;2023-07-28T04:25:09;6.13;;;5.43;;
18217;SDS011;9234;49.344;11.120;2023-07-28T04:27:42;6.53;;;5.82;;
18217;SDS011;9234;49.344;11.120;2023-07-28T04:30:10;6.75;;;5.88;;
18217;SDS011;9234;49.344;11.120;2023-07-28T04:32:39;8.57;;;6.10;;
18217;SDS011;9234;49.344;11.120;2023-07-28T04:35:13;6.45;;;5.93;;
18217;SDS011;9234;49.344;11.120;2023-07-28T04:37:52;6.40;;;5.70;;
18217;SDS011;9234;49.344;11.120;2023-07-28T04:40:34;7.13;;;6.05;;
18217;SDS011;9234;49.344;11.120;2023-07-28T04:43:02;9.40;;;5.53;;
18217;SDS011;9234;49.344;11.120;2023-07-28T04:45:31;6.50;;;6.00;;
18217;SDS011;9234;49.344;11.120;2023-07-28T04:48:06;6.68;;;6.07;;
18217;SDS011;9234;49.344;11.120;2023-07-28T04:50:34;6.40;;;5.80;;
18217;SDS011;9234;49.344;11.120;2023-07-28T04:53:25;6.47;;;5.32;;
18217;SDS011;9234;49.344;11.120;2023-07-28T04:56:08;7.78;;;5.82;;
18217;SDS011;9234;49.344;11.120;2023-07-28T04:58:36;7.47;;;5.97;;
18217;SDS011;9234;49.344;11.120;2023-07-28T05:01:05;6.28;;;5.68;;
18217;SDS011;9234;49.344;11.120;2023-07-28T05:03:37;5.82;;;5.22;;
18217;SDS011;9234;49.344;11.120;2023-07-28T05:06:17;6.47;;;5.75;;
18217;SDS011;9234;49.344;11.120;2023-07-28T05:08:45;6.85;;;6.13;;
18217;SDS011;9234;49.344;11.120;2023-07-28T05:11:19;7.03;;;5.65;;
18217;SDS011;9234;49.344;11.120;2023-07-28T05:13:47;6.82;;;6.13;;
18217;SDS011;9234;49.344;11.120;2023-07-28T05:16:15;6.82;;;6.22;;
18217;SDS011;9234;49.344;11.120;2023-07-28T05:19:04;7.75;;;5.78;;
18217;SDS011;9234;49.344;11.120;2023-07-28T05:21:54;6.55;;;6.05;;
18217;SDS011;9234;49.344;11.120;2023-07-28T05:24:30;6.28;;;5.65;;
18217;SDS011;9234;49.344;11.120;2023-07-28T05:26:58;6.43;;;5.82;;
18217;SDS011;9234;49.344;11.120;2023-07-28T05:29:27;6.00;;;5.50;;
18217;SDS011;9234;49.344;11.120;2023-07-28T05:32:01;5.80;;;5.30;;
18217;SDS011;9234;49.344;11.120;2023-07-28T05:34:42;6.60;;;5.93;;
18217;SDS011;9234;49.344;11.120;2023-07-28T05:37:11;7.10;;;5.82;;
18217;SDS011;9234;49.344;11.120;2023-07-28T05:39:39;6.40;;;5.88;;
18217;SDS011;9234;49.344;11.120;2023-07-28T05:42:07;6.13;;;5.60;;
18217;SDS011;9234;49.344;11.120;2023-07-28T05:44:36;8.32;;;6.63;;
18217;SDS011;9234;49.344;11.120;2023-07-28T05:47:04;6.95;;;5.93;;
18217;SDS011;9234;49.344;11.120;2023-07-28T05:49:33;6.97;;;6.38;;
18217;SDS011;9234;49.344;11.120;2023-07-28T05:52:03;6.75;;;6.18;;
18217;SDS011;9234;49.344;11.120;2023-07-28T05:54:32;7.63;;;5.82;;
18217;SDS011;9234;49.344;11.120;2023-07-28T05:57:00;7.00;;;6.30;;
18217;SDS011;9234;49.344;11.120;2023-07-28T05:59:28;7.50;;;5.93;;
18217;SDS011;9234;49.344;11.120;2023-07-28T06:01:57;10.45;;;6.45;;
18217;SDS011;9234;49.344;11.120;2023-07-28T06:04:52;6.63;;;5.55;;
18217;SDS011;9234;49.344;11.120;2023-07-28T06:07:22;6.43;;;5.82;;
18217;SDS011;9234;49.344;11.120;2023-07-28T06:09:52;6.88;;;6.18;;
18217;SDS011;9234;49.344;11.120;2023-07-28T06:12:20;6.65;;;6.03;;
18217;SDS011;9234;49.344;11.120;2023-07-28T06:14:49;19.45;;;6.90;;
18217;SDS011;9234;49.344;11.120;2023-07-28T06:17:17;8.07;;;6.25;;
18217;SDS011;9234;49.344;11.120;2023-07-28T06:19:46;6.90;;;5.57;;
18217;SDS011;9234;49.344;11.120;2023-07-28T06:22:15;6.10;;;5.50;;
18217;SDS011;9234;49.344;11.120;2023-07-28T06:24:46;6.65;;;6.05;;
18217;SDS011;9234;49.344;11.120;2023-07-28T06:27:15;6.47;;;5.95;;
18217;SDS011;9234;49.344;11.120;2023-07-28T06:29:43;6.53;;;5.93;;
18217;SDS011;9234;49.344;11.120;2023-07-28T06:32:13;6.47;;;5.88;;
18217;SDS011;9234;49.344;11.120;2023-07-28T06:34:41;6.25;;;5.72;;
18217;SDS011;9234;49.344;11.120;2023-07-28T06:37:10;6.75;;;6.13;;
18217;SDS011;9234;49.344;11.120;2023-07-28T06:39:39;6.88;;;5.90;;
18217;SDS011;9234;49.344;11.120;2023-07-28T06:42:09;7.20;;;6.45;;
18217;SDS011;9234;49.344;11.120;2023-07-28T06:44:38;6.95;;;6.18;;
18217;SDS011;9234;49.344;11.120;2023-07-28T06:47:06;7.45;;;5.85;;
18217;SDS011;9234;49.344;11.120;2023-07-28T06:49:35;6.97;;;5.80;;
18217;SDS011;9234;49.344;11.120;2023-07-28T06:52:04;7.78;;;5.65;;
18217;SDS011;9234;49.344;11.120;2023-07-28T06:54:33;5.82;;;5.32;;
18217;SDS011;9234;49.344;11.120;2023-07-28T06:57:02;6.28;;;5.68;;
18217;SDS011;9234;49.344;11.120;2023-07-28T06:59:34;6.57;;;5.55;;
18217;SDS011;9234;49.344;11.120;2023-07-28T07:02:02;6.28;;;5.70;;
18217;SDS011;9234;49.344;11.120;2023-07-28T07:04:31;8.65;;;5.95;;
18217;SDS011;9234;49.344;11.120;2023-07-28T07:06:59;6.63;;;6.10;;
18217;SDS011;9234;49.344;11.120;2023-07-28T07:09:29;6.60;;;5.85;;
18217;SDS011;9234;49.344;11.120;2023-07-28T07:11:57;7.45;;;5.43;;
18217;SDS011;9234;49.344;11.120;2023-07-28T07:14:25;6.70;;;6.10;;
18217;SDS011;9234;49.344;11.120;2023-07-28T07:16:55;7.20;;;5.30;;
18217;SDS011;9234;49.344;11.120;2023-07-28T07:19:23;5.72;;;5.22;;
18217;SDS011;9234;49.344;11.120;2023-07-28T07:21:52;6.03;;;5.43;;
18217;SDS011;9234;49.344;11.120;2023-07-28T07:24:20;5.78;;;5.38;;
18217;SDS011;9234;49.344;11.120;2023-07-28T07:26:49;7.32;;;5.63;;
18217;SDS011;9234;49.344;11.120;2023-07-28T07:29:18;6.78;;;5.53;;
18217;SDS011;9234;49.344;11.120;2023-07-28T07:31:46;6.25;;;5.18;;
18217;SDS011;9234;49.344;11.120;2023-07-28T07:34:16;6.30;;;5.70;;
18217;SDS011;9234;49.344;11.120;2023-07-28T07:36:45;6.60;;;6.00;;
18217;SDS011;9234;49.344;11.120;2023-07-28T07:39:13;13.63;;;11.18;;
18217;SDS011;9234;49.344;11.120;2023-07-28T07:41:42;9.43;;;8.57;;
18217;SDS011;9234;49.344;11.120;2023-07-28T07:44:10;7.07;;;6.43;;
18217;SDS011;9234;49.344;11.120;2023-07-28T07:46:38;8.43;;;6.00;;
18217;SDS011;9234;49.344;11.120;2023-07-28T07:49:09;6.03;;;5.53;;
18217;SDS011;9234;49.344;11.120;2023-07-28T07:51:39;6.13;;;5.53;;
18217;SDS011;9234;49.344;11.120;2023-07-28T07:54:07;9.45;;;5.82;;
18217;SDS011;9234;49.344;11.120;2023-07-28T07:56:35;6.13;;;5.47;;
18217;SDS011;9234;49.344;11.120;2023-07-28T07:59:03;6.70;;;5.68;;
18217;SDS011;9234;49.344;11.120;2023-07-28T08:01:32;6.47;;;5.75;;
18217;SDS011;9234;49.344;11.120;2023-07-28T08:04:00;5.88;;;5.25;;
18217;SDS011;9234;49.344;11.120;2023-07-28T08:06:29;6.45;;;5.32;;
18217;SDS011;9234;49.344;11.120;2023-07-28T08:08:58;6.00;;;5.43;;
18217;SDS011;9234;49.344;11.120;2023-07-28T08:11:27;5.38;;;4.88;;
18217;SDS011;9234;49.344;11.120;2023-07-28T08:13:56;6.30;;;5.72;;
18217;SDS011;9234;49.344;11.120;2023-07-28T08:16:24;5.43;;;4.93;;
18217;SDS011;9234;49.344;11.120;2023-07-28T08:18:52;5.57;;;4.93;;
18217;SDS011;9234;49.344;11.120;2023-07-28T08:21:20;5.82;;;4.95;;
18217;SDS011;9234;49.344;11.120;2023-07-28T08:23:49;5.68;;;5.18;;
18217;SDS011;9234;49.344;11.120;2023-07-28T08:26:18;6.20;;;4.68;;
18217;SDS011;9234;49.344;11.120;2023-07-28T08:28:47;5.88;;;5.00;;
18217;SDS011;9234;49.344;11.120;2023-07-28T08:31:15;6.78;;;5.32;;
18217;SDS011;9234;49.344;11.120;2023-07-28T08:33:43;6.85;;;5.47;;
18217;SDS011;9234;49.344;11.120;2023-07-28T08:36:12;5.60;;;5.03;;
18217;SDS011;9234;49.344;11.120;2023-07-28T08:38:40;5.28;;;4.78;;
18217;SDS011;9234;49.344;11.120;2023-07-28T08:41:08;5.45;;;4.80;;
18217;SDS011;9234;49.344;11.120;2023-07-28T08:43:38;5.35;;;4.90;;
18217;SDS011;9234;49.344;11.120;2023-07-28T08:46:07;5.80;;;5.30;;
18217;SDS011;9234;49.344;11.120;2023-07-28T08:48:36;4.78;;;4.38;;
18217;SDS011;9234;49.344;11.120;2023-07-28T08:51:05;5.18;;;4.20;;
18217;SDS011;9234;49.344;11.120;2023-07-28T08:53:34;6.05;;;3.95;;
18217;SDS011;9234;49.344;11.120;2023-07-28T08:56:03;4.30;;;4.00;;
18217;SDS011;9234;49.344;11.120;2023-07-28T08:58:32;3.92;;;3.55;;
18217;SDS011;9234;49.344;11.120;2023-07-28T09:01:02;4.25;;;3.83;;
18217;SDS011;9234;49.344;11.120;2023-07-28T09:03:31;4.25;;;3.10;;
18217;SDS011;9234;49.344;11.120;2023-07-28T09:06:07;3.40;;;3.10;;
18217;SDS011;9234;49.344;11.120;2023-07-28T09:08:36;3.70;;;2.70;;
18217;SDS011;9234;49.344;11.120;2023-07-28T09:11:05;2.47;;;2.35;;
18217;SDS011;9234;49.344;11.120;2023-07-28T09:13:35;2.95;;;2.75;;
18217;SDS011;9234;49.344;11.120;2023-07-28T09:16:08;2.95;;;2.60;;
18217;SDS011;9234;49.344;11.120;2023-07-28T09:18:45;2.40;;;2.20;;
18217;SDS011;9234;49.344;11.120;2023-07-28T09:21:17;2.53;;;2.22;;
18217;SDS011;9234;49.344;11.120;2023-07-28T09:23:55;2.33;;;1.92;;
18217;SDS011;9234;49.344;11.120;2023-07-28T09:26:35;2.85;;;2.65;;
18217;SDS011;9234;49.344;11.120;2023-07-28T09:29:12;2.35;;;2.15;;
18217;SDS011;9234;49.344;11.120;2023-07-28T09:31:43;2.58;;;2.38;;
18217;SDS011;9234;49.344;11.120;2023-07-28T09:34:13;2.90;;;2.40;;
18217;SDS011;9234;49.344;11.120;2023-07-28T09:36:52;2.75;;;2.42;;
18217;SDS011;9234;49.344;11.120;2023-07-28T09:39:21;3.28;;;2.67;;
18217;SDS011;9234;49.344;11.120;2023-07-28T09:41:50;2.97;;;2.30;;
18217;SDS011;9234;49.344;11.120;2023-07-28T09:44:23;2.67;;;2.20;;
18217;SDS011;9234;49.344;11.120;2023-07-28T09:46:53;3.45;;;2.53;;
18217;SDS011;9234;49.344;11.120;2023-07-28T09:49:26;3.38;;;3.08;;
18217;SDS011;9234;49.344;11.120;2023-07-28T09:52:01;2.95;;;2.60;;
18217;SDS011;9234;49.344;11.120;2023-07-28T09:54:34;2.78;;;2.53;;
18217;SDS011;9234;49.344;11.120;2023-07-28T09:57:07;2.58;;;2.38;;
18217;SDS011;9234;49.344;11.120;2023-07-28T09:59:40;2.63;;;2.42;;
18217;SDS011;9234;49.344;11.120;2023-07-28T10:02:11;2.45;;;2.08;;
18217;SDS011;9234;49.344;11.120;2023-07-28T10:04:40;2.47;;;2.28;;
18217;SDS011;9234;49.344;11.120;2023-07-28T10:07:08;2.08;;;1.88;;
18217;SDS011;9234;49.344;11.120;2023-07-28T10:09:37;4.18;;;2.20;;
18217;SDS011;9234;49.344;11.120;2023-07-28T10:12:06;1.70;;;1.60;;
18217;SDS011;9234;49.344;11.120;2023-07-28T10:14:45;1.98;;;1.83;;
18217;SDS011;9234;49.344;11.120;2023-07-28T10:17:16;2.10;;;1.75;;
18217;SDS011;9234;49.344;11.120;2023-07-28T10:19:44;1.80;;;1.70;;
18217;SDS011;9234;49.344;11.120;2023-07-28T10:22:13;1.50;;;1.40;;
18217;SDS011;9234;49.344;11.120;2023-07-28T10:24:51;1.65;;;1.40;;
18217;SDS011;9234;49.344;11.120;2023-07-28T10:27:30;2.10;;;1.52;;
18217;SDS011;9234;49.344;11.120;2023-07-28T10:30:04;1.20;;;1.10;;
18217;SDS011;9234;49.344;11.120;2023-07-28T10:32:40;1.75;;;1.05;;
18217;SDS011;9234;49.344;11.120;2023-07-28T10:35:21;0.95;;;0.95;;
18217;SDS011;9234;49.344;11.120;2023-07-28T10:37:53;1.50;;;1.40;;
18217;SDS011;9234;49.344;11.120;2023-07-28T10:40:32;1.23;;;1.13;;
18217;SDS011;9234;49.344;11.120;2023-07-28T10:43:02;0.93;;;0.90;;
18217;SDS011;9234;49.344;11.120;2023-07-28T10:45:32;1.20;;;1.10;;
18217;SDS011;9234;49.344;11.120;2023-07-28T10:48:02;1.30;;;0.80;;
18217;SDS011;9234;49.344;11.120;2023-07-28T10:50:32;1.67;;;1.10;;
18217;SDS011;9234;49.344;11.120;2023-07-28T10:53:00;1.10;;;1.00;;
18217;SDS011;9234;49.344;11.120;2023-07-28T10:55:29;0.82;;;0.82;;
18217;SDS011;9234;49.344;11.120;2023-07-28T10:57:58;2.50;;;1.00;;
18217;SDS011;9234;49.344;11.120;2023-07-28T11:00:26;0.80;;;0.80;;
18217;SDS011;9234;49.344;11.120;2023-07-28T11:02:55;0.90;;;0.85;;
18217;SDS011;9234;49.344;11.120;2023-07-28T11:05:26;2.05;;;0.73;;
18217;SDS011;9234;49.344;11.120;2023-07-28T11:07:56;1.45;;;0.90;;
18217;SDS011;9234;49.344;11.120;2023-07-28T11:10:28;0.68;;;0.68;;
18217;SDS011;9234;49.344;11.120;2023-07-28T11:12:57;1.60;;;0.95;;
18217;SDS011;9234;49.344;11.120;2023-07-28T11:15:41;1.10;;;0.90;;
18217;SDS011;9234;49.344;11.120;2023-07-28T11:18:10;0.95;;;0.70;;
18217;SDS011;9234;49.344;11.120;2023-07-28T11:20:40;0.60;;;0.60;;
18217;SDS011;9234;49.344;11.120;2023-07-28T11:23:13;0.82;;;0.82;;
18217;SDS011;9234;49.344;11.120;2023-07-28T11:25:44;1.30;;;0.70;;
18217;SDS011;9234;49.344;11.120;2023-07-28T11:28:13;0.60;;;0.60;;
18217;SDS011;9234;49.344;11.120;2023-07-28T11:30:42;0.80;;;0.70;;
18217;SDS011;9234;49.344;11.120;2023-07-28T11:33:11;0.50;;;0.50;;
18217;SDS011;9234;49.344;11.120;2023-07-28T11:35:43;0.70;;;0.70;;
18217;SDS011;9234;49.344;11.120;2023-07-28T11:38:12;0.80;;;0.70;;
18217;SDS011;9234;49.344;11.120;2023-07-28T11:40:42;1.20;;;0.50;;
18217;SDS011;9234;49.344;11.120;2023-07-28T11:43:11;0.80;;;0.70;;
18217;SDS011;9234;49.344;11.120;2023-07-28T11:45:40;0.50;;;0.50;;
18217;SDS011;9234;49.344;11.120;2023-07-28T11:48:08;0.60;;;0.60;;
18217;SDS011;9234;49.344;11.120;2023-07-28T11:50:38;1.13;;;0.82;;
18217;SDS011;9234;49.344;11.120;2023-07-28T11:53:10;0.60;;;0.60;;
18217;SDS011;9234;49.344;11.120;2023-07-28T11:55:39;0.80;;;0.60;;
18217;SDS011;9234;49.344;11.120;2023-07-28T11:58:08;0.40;;;0.40;;
18217;SDS011;9234;49.344;11.120;2023-07-28T12:00:39;1.02;;;0.60;;
18217;SDS011;9234;49.344;11.120;2023-07-28T12:03:10;1.63;;;0.55;;
18217;SDS011;9234;49.344;11.120;2023-07-28T12:05:40;1.52;;;0.77;;
18217;SDS011;9234;49.344;11.120;2023-07-28T12:08:40;1.13;;;0.80;;
18217;SDS011;9234;49.344;11.120;2023-07-28T12:11:11;0.75;;;0.68;;
18217;SDS011;9234;49.344;11.120;2023-07-28T12:13:46;1.73;;;0.70;;
18217;SDS011;9234;49.344;11.120;2023-07-28T12:16:31;1.75;;;0.80;;
18217;SDS011;9234;49.344;11.120;2023-07-28T12:19:08;0.93;;;0.90;;
18217;SDS011;9234;49.344;11.120;2023-07-28T12:21:37;0.75;;;0.70;;
18217;SDS011;9234;49.344;11.120;2023-07-28T12:24:06;0.73;;;0.73;;
18217;SDS011;9234;49.344;11.120;2023-07-28T12:26:35;2.35;;;0.90;;
18217;SDS011;9234;49.344;11.120;2023-07-28T12:29:06;0.68;;;0.57;;
18217;SDS011;9234;49.344;11.120;2023-07-28T12:31:37;1.35;;;0.68;;
18217;SDS011;9234;49.344;11.120;2023-07-28T12:34:09;1.55;;;0.68;;
18217;SDS011;9234;49.344;11.120;2023-07-28T12:36:50;2.42;;;1.13;;
18217;SDS011;9234;49.344;11.120;2023-07-28T12:39:21;0.70;;;0.63;;
18217;SDS011;9234;49.344;11.120;2023-07-28T12:41:53;0.82;;;0.80;;
18217;SDS011;9234;49.344;11.120;2023-07-28T12:44:24;1.40;;;0.80;;
18217;SDS011;9234;49.344;11.120;2023-07-28T12:46:56;0.63;;;0.60;;
18217;SDS011;9234;49.344;11.120;2023-07-28T12:49:24;1.00;;;0.90;;
18217;SDS011;9234;49.344;11.120;2023-07-28T12:51:55;1.42;;;1.10;;
18217;SDS011;9234;49.344;11.120;2023-07-28T12:54:25;1.60;;;0.90;;
18217;SDS011;9234;49.344;11.120;2023-07-28T12:56:53;1.20;;;1.10;;
18217;SDS011;9234;49.344;11.120;2023-07-28T12:59:25;4.88;;;1.02;;
18217;SDS011;9234;49.344;11.120;2023-07-28T13:01:54;1.85;;;0.90;;
18217;SDS011;9234;49.344;11.120;2023-07-28T13:04:22;1.08;;;1.00;;
18217;SDS011;9234;49.344;11.120;2023-07-28T13:06:51;1.80;;;1.00;;
18217;SDS011;9234;49.344;11.120;2023-07-28T13:09:40;0.57;;;0.57;;
18217;SDS011;9234;49.344;11.120;2023-07-28T13:12:09;0.90;;;0.85;;
18217;SDS011;9234;49.344;11.120;2023-07-28T13:14:40;1.23;;;0.98;;
18217;SDS011;9234;49.344;11.120;2023-07-28T13:17:08;0.85;;;0.85;;
18217;SDS011;9234;49.344;11.120;2023-07-28T13:19:38;2.20;;;1.10;;
18217;SDS011;9234;49.344;11.120;2023-07-28T13:22:06;1.10;;;1.00;;
18217;SDS011;9234;49.344;11.120;2023-07-28T13:24:36;0.90;;;0.90;;
18217;SDS011;9234;49.344;11.120;2023-07-28T13:27:06;1.10;;;1.00;;
18217;SDS011;9234;49.344;11.120;2023-07-28T13:29:35;1.77;;;0.85;;
18217;SDS011;9234;49.344;11.120;2023-07-28T13:32:03;1.35;;;0.82;;
18217;SDS011;9234;49.344;11.120;2023-07-28T13:34:44;1.10;;;0.80;;
18217;SDS011;9234;49.344;11.120;2023-07-28T13:37:13;0.93;;;0.90;;
18217;SDS011;9234;49.344;11.120;2023-07-28T13:39:41;1.60;;;0.95;;
18217;SDS011;9234;49.344;11.120;2023-07-28T13:42:11;0.70;;;0.70;;
18217;SDS011;9234;49.344;11.120;2023-07-28T13:44:42;1.92;;;0.85;;
18217;SDS011;9234;49.344;11.120;2023-07-28T13:47:23;1.70;;;0.98;;
18217;SDS011;9234;49.344;11.120;2023-07-28T13:49:51;1.15;;;0.90;;
18217;SDS011;9234;49.344;11.120;2023-07-28T13:52:20;1.55;;;0.80;;
18217;SDS011;9234;49.344;11.120;2023-07-28T13:54:48;1.90;;;0.90;;
18217;SDS011;9234;49.344;11.120;2023-07-28T13:57:21;1.00;;;0.90;;
18217;SDS011;9234;49.344;11.120;2023-07-28T13:59:49;1.15;;;1.05;;
18217;SDS011;9234;49.344;11.120;2023-07-28T14:02:17;1.73;;;0.88;;
18217;SDS011;9234;49.344;11.120;2023-07-28T14:04:46;0.75;;;0.75;;
18217;SDS011;9234;49.344;11.120;2023-07-28T14:07:14;0.70;;;0.68;;
18217;SDS011;9234;49.344;11.120;2023-07-28T14:09:42;2.45;;;0.80;;
18217;SDS011;9234;49.344;11.120;2023-07-28T14:12:10;0.70;;;0.70;;
18217;SDS011;9234;49.344;11.120;2023-07-28T14:14:40;3.65;;;1.15;;
18217;SDS011;9234;49.344;11.120;2023-07-28T14:17:08;1.42;;;0.63;;
18217;SDS011;9234;49.344;11.120;2023-07-28T14:19:37;0.82;;;0.82;;
18217;SDS011;9234;49.344;11.120;2023-07-28T14:22:06;1.50;;;1.00;;
18217;SDS011;9234;49.344;11.120;2023-07-28T14:24:35;2.53;;;0.90;;
18217;SDS011;9234;49.344;11.120;2023-07-28T14:27:04;0.80;;;0.80;;
18217;SDS011;9234;49.344;11.120;2023-07-28T14:29:33;0.88;;;0.88;;
18217;SDS011;9234;49.344;11.120;2023-07-28T14:32:02;2.35;;;1.20;;
18217;SDS011;9234;49.344;11.120;2023-07-28T14:34:32;0.82;;;0.80;;
18217;SDS011;9234;49.344;11.120;2023-07-28T14:37:03;2.03;;;0.85;;
18217;SDS011;9234;49.344;11.120;2023-07-28T14:39:32;1.92;;;1.00;;
18217;SDS011;9234;49.344;11.120;2023-07-28T14:42:01;2.78;;;1.02;;
18217;SDS011;9234;49.344;11.120;2023-07-28T14:44:29;1.20;;;1.02;;
18217;SDS011;9234;49.344;11.120;2023-07-28T14:46:58;1.25;;;1.08;;
18217;SDS011;9234;49.344;11.120;2023-07-28T14:49:27;1.17;;;1.05;;
18217;SDS011;9234;49.344;11.120;2023-07-28T14:51:55;0.90;;;0.90;;
18217;SDS011;9234;49.344;11.120;2023-07-28T14:54:24;0.85;;;0.85;;
18217;SDS011;9234;49.344;11.120;2023-07-28T14:56:52;1.10;;;1.00;;
18217;SDS011;9234;49.344;11.120;2023-07-28T14:59:20;1.30;;;1.20;;
18217;SDS011;9234;49.344;11.120;2023-07-28T15:01:48;2.17;;;1.17;;
18217;SDS011;9234;49.344;11.120;2023-07-28T15:04:17;1.08;;;1.00;;
18217;SDS011;9234;49.344;11.120;2023-07-28T15:06:46;1.83;;;0.88;;